EDT,Max TemperatureF,Mean TemperatureF,Min TemperatureF,Max Dew PointF,MeanDew PointF,Min DewpointF,Max Humidity, Mean Humidity, Min Humidity, Max Sea Level PressureIn, Mean Sea Level PressureIn, Min Sea Level PressureIn, Max VisibilityMiles, Mean VisibilityMiles, Min VisibilityMiles, Max Wind SpeedMPH, Mean Wind SpeedMPH, Max Gust SpeedMPH,PrecipitationIn, CloudCover, Events, WindDirDegrees
2013-9-1,80,72,64,70,67,63,94,84,61,29.84,29.80,29.78,10,7,2,7,2,,0.00,5,,227
2013-9-2,82,70,59,68,59,50,94,68,32,29.97,29.86,29.78,,,,17,5,25,0.00,3,,313
2013-9-3,77,66,55,54,49,45,82,58,36,30.07,30.03,29.97,,,,14,6,21,0.00,3,,328
2013-9-4,82,66,51,55,52,48,94,65,30,30.15,30.11,30.06,10,10,10,12,2,20,0.06,0,,261
2013-9-5,78,66,55,55,43,27,88,52,16,30.25,30.21,30.13,,,,10,3,16,0.00,1,,24
2013-9-6,78,62,46,52,45,43,93,57,28,30.29,30.21,30.10,,,,7,1,,0.00,0,,136
2013-9-7,86,72,57,63,56,46,77,59,37,30.09,30.02,29.93,,,,12,2,17,0.00,1,,237
2013-9-8,77,70,62,64,61,55,94,77,57,30.08,30.03,29.97,,,,15,4,18,0.00,5,,78
2013-9-9,91,76,60,68,59,50,83,64,38,30.06,29.99,29.92,,,,12,4,17,0.00,1,,159
2013-9-10,96,84,73,70,64,54,88,55,25,30.08,30.03,29.96,,,,14,7,22,0.00,0,,233
2013-9-11,95,83,71,68,64,57,88,60,28,30.11,30.05,29.98,,,,13,6,21,0.00,1,,236
2013-9-12,82,71,60,68,60,46,94,72,28,30.01,29.96,29.87,,,,15,4,24,0.47,4,,297
2013-9-13,62,54,46,52,42,37,82,64,39,30.15,30.09,30.02,,,,14,7,20,0.00,2,,357
2013-9-14,68,52,37,43,37,32,93,61,26,30.22,30.16,30.11,,,,6,1,,0.00,0,,246
2013-9-15,68,55,42,54,46,39,94,74,37,30.14,30.10,30.03,,,,10,2,,0.18,4,,154
2013-9-16,68,59,48,54,49,43,94,75,40,30.35,30.27,30.13,,,,10,3,,0.00,5,,25
2013-9-17,71,56,41,46,43,37,93,68,31,30.39,30.32,30.21,,,,8,4,,0.00,0,,88
2013-9-18,80,66,51,54,49,43,94,64,26,30.21,30.12,30.04,,,,5,2,,0.00,0,,135
2013-9-19,77,70,64,64,63,52,94,84,64,30.06,30.02,29.93,,,,8,3,,0.19,6,,214
2013-9-20,78,72,66,68,66,63,94,83,61,29.95,29.85,29.79,,,,12,4,20,0.14,5,,222
2013-9-21,69,60,50,63,50,41,94,69,35,29.91,29.81,29.75,,,,17,7,24,0.01,4,,297
2013-9-22,64,54,44,46,42,37,93,65,37,30.07,30.00,29.91,,,,12,3,18,0.00,2,,12
2013-9-23,66,54,41,45,41,37,93,70,40,30.17,30.12,30.07,,,,12,3,20,0.00,2,,87
2013-9-24,69,53,37,46,42,36,100,68,33,30.13,30.07,29.98,,,,9,4,,0.00,0,,89
2013-9-25,69,56,44,54,46,43,94,72,43,30.00,29.97,29.94,,,,8,3,9,0.00,0,,57
2013-9-26,78,61,44,54,44,36,100,62,21,30.13,30.07,29.99,,,,9,2,,0.00,0,,82
2013-9-27,78,61,44,55,46,41,94,62,30,30.23,30.18,30.14,,,,12,4,16,0.00,0,,94
2013-9-28,80,62,44,54,48,45,100,65,28,30.19,30.12,30.03,,,,9,3,,0.00,0,,149
2013-9-29,64,57,50,61,55,48,100,83,68,30.03,30.01,29.99,,,,8,2,17,0.06,6,,247
2013-9-30,71,58,46,59,50,46,100,82,43,30.04,30.00,29.95,,,,10,1,,0.01,6,,227